KLNK/LNK METAR and TAF weather

Enter ICAO airport designator
Station Type Date Time Source
KLNK METAR 2022/01/29 09:54 UTC NOAA

KLNK 290954Z 18004KT 10SM CLR M07/M11 A3006 RMK AO2 SLP193 T10671106 $


Station Type Date Time Source
KLNK Decoded METAR 2022/01/29 09:54 UTC NOAA

LINCOLN MUNICIPAL AIRPORT, NE, United States (KLNK) 40-50N 96-46W 364M
Jan 29, 2022 - 04:54 AM EST / 2022.01.29 0954 UTC
Wind: from the S (180 degrees) at 5 MPH (4 KT):0
Visibility: 10 mile(s):0
Sky conditions: clear
Temperature: 19.9 F (-6.7 C)
Windchill: 12 F (-11 C):1
Dew Point: 12.9 F (-10.6 C)
Relative Humidity: 73%
Pressure (altimeter): 30.06 in. Hg (1017 hPa)
ob: KLNK 290954Z 18004KT 10SM CLR M07/M11 A3006 RMK AO2 SLP193 T10671106
cycle: 10

Station Type Date Time Source
KLNK TAF 2022/01/29 06:33 UTC NOAA

TAF KLNK 290531Z 2906/3006 20007KT P6SM FEW250
FM291600 31011G22KT P6SM FEW250
FM292300 32006KT P6SM FEW250

Example: see airport list